Time;durP1;ratioP1;P1;durP2;ratioP2;P2;SDS_P1;SDS_P2;PMS_P1;PMS_P2;Temp;Humidity;BMP_temperature;BMP_pressure;BME280_temperature;BME280_humidity;BME280_pressure;Samples;Min_cycle;Max_cycle;Signal;HPM_P1;HPM_P2
2021/08/11 00:00:51;;;;;;;15.57;6.67;;;;;;;19.50;62.22;98969.02;125669;1093;103103;-74
2021/08/11 00:03:23;;;;;;;15.90;7.05;;;;;;;19.39;61.66;98969.36;125721;1093;102941;-73
2021/08/11 00:05:52;;;;;;;19.70;7.77;;;;;;;19.27;62.15;98976.97;125694;1093;102913;-73
2021/08/11 00:08:21;;;;;;;15.73;6.93;;;;;;;19.23;62.19;98967.53;125686;1093;103172;-73
2021/08/11 00:10:49;;;;;;;15.60;7.40;;;;;;;19.20;62.14;98976.82;125699;1096;102997;-73
2021/08/11 00:13:19;;;;;;;15.17;7.17;;;;;;;19.20;62.34;98976.82;125682;1093;103308;-74
2021/08/11 00:15:49;;;;;;;16.33;7.10;;;;;;;19.16;62.53;98973.60;125692;1093;103025;-72
2021/08/11 00:18:17;;;;;;;14.55;7.70;;;;;;;19.09;62.32;98971.77;125691;1093;103007;-74
2021/08/11 00:20:46;;;;;;;19.17;7.73;;;;;;;19.03;62.81;98971.42;125733;1093;102942;-74
2021/08/11 00:23:15;;;;;;;20.60;8.43;;;;;;;19.02;62.95;98971.61;125665;1093;102975;-73
2021/08/11 00:25:43;;;;;;;15.27;7.13;;;;;;;19.04;62.85;98962.33;125684;1095;103177;-74
2021/08/11 00:28:11;;;;;;;18.40;8.20;;;;;;;19.06;62.67;98959.48;125732;1093;102946;-74
2021/08/11 00:30:40;;;;;;;18.17;7.80;;;;;;;19.07;62.99;98966.56;125686;1093;103064;-74
2021/08/11 00:33:08;;;;;;;20.00;8.33;;;;;;;19.08;63.21;98965.55;125739;1093;102920;-73
2021/08/11 00:35:36;;;;;;;19.53;8.57;;;;;;;19.05;63.10;98968.58;125679;1093;103017;-72
2021/08/11 00:38:05;;;;;;;16.77;8.23;;;;;;;19.03;63.38;98975.98;125632;1093;103031;-73
2021/08/11 00:40:35;;;;;;;16.87;8.23;;;;;;;19.01;63.36;98978.84;125696;1093;102939;-74
2021/08/11 00:43:07;;;;;;;16.57;8.00;;;;;;;18.99;63.31;98985.42;125697;1093;102939;-73
2021/08/11 00:45:37;;;;;;;17.77;7.67;;;;;;;18.97;63.35;98984.75;125718;1093;103009;-73
2021/08/11 00:48:09;;;;;;;17.63;8.30;;;;;;;18.95;63.29;98984.86;125720;1093;102997;-72
2021/08/11 00:50:40;;;;;;;16.03;6.63;;;;;;;18.89;63.38;98985.56;125678;1093;103015;-73
2021/08/11 00:53:13;;;;;;;14.57;6.63;;;;;;;18.82;63.19;98993.45;125693;1093;102948;-72
2021/08/11 00:55:42;;;;;;;17.47;6.47;;;;;;;18.73;63.52;98995.30;125696;1096;102919;-74
2021/08/11 00:58:13;;;;;;;14.93;6.20;;;;;;;18.64;63.10;98990.08;125686;1096;102938;-74
2021/08/11 01:00:47;;;;;;;11.85;5.70;;;;;;;18.51;63.44;98990.56;125703;1095;103440;-74
2021/08/11 01:03:23;;;;;;;14.03;5.20;;;;;;;18.39;63.48;98981.92;125625;1091;103013;-73
2021/08/11 01:05:59;;;;;;;12.50;5.63;;;;;;;18.33;63.58;98988.82;125655;1093;102982;-73
2021/08/11 01:08:30;;;;;;;12.60;5.03;;;;;;;18.29;63.70;98987.45;125674;1093;102948;-73
2021/08/11 01:11:00;;;;;;;11.20;5.03;;;;;;;18.25;63.54;98983.41;125734;1093;102914;-73
2021/08/11 01:13:31;;;;;;;10.97;5.20;;;;;;;18.24;63.93;98985.27;125673;1093;103012;-73
2021/08/11 01:15:59;;;;;;;11.40;5.23;;;;;;;18.24;64.04;98984.41;125618;1092;102934;-73
2021/08/11 01:18:28;;;;;;;14.70;6.50;;;;;;;18.24;64.08;98984.41;125650;1093;103003;-72
2021/08/11 01:21:28;;;;;;;13.90;5.90;;;;;;;18.28;64.24;98983.08;125669;1091;103022;-72
2021/08/11 01:24:12;;;;;;;11.87;5.70;;;;;;;18.30;64.32;98981.92;125678;1093;103093;-73
2021/08/11 01:27:19;;;;;;;13.23;5.53;;;;;;;18.32;63.88;98980.92;125659;1093;102927;-73
2021/08/11 01:30:00;;;;;;;14.13;6.00;;;;;;;18.33;64.40;98979.91;125640;1093;103035;-73
2021/08/11 01:33:06;;;;;;;13.30;6.10;;;;;;;18.32;64.00;98981.75;125659;1093;102948;-73
2021/08/11 01:35:49;;;;;;;10.60;5.65;;;;;;;18.34;64.37;98979.73;125611;1093;103061;-74
2021/08/11 01:38:24;;;;;;;11.03;5.20;;;;;;;18.34;64.53;98982.42;125630;1094;102989;-74
2021/08/11 01:41:02;;;;;;;13.50;5.60;;;;;;;18.37;64.40;98976.72;125698;1093;103020;-74
2021/08/11 01:43:39;;;;;;;13.47;6.33;;;;;;;18.38;64.57;98980.23;125613;1093;103180;-72
2021/08/11 01:46:13;;;;;;;14.37;6.17;;;;;;;18.41;64.64;98982.61;125636;1093;104650;-74
2021/08/11 01:48:43;;;;;;;;;;;;;;;18.42;64.65;98978.91;125654;1092;102935;-74
2021/08/11 01:51:11;;;;;;;13.70;5.97;;;;;;;18.41;64.73;98985.30;125651;1093;102912;-73
2021/08/11 01:53:43;;;;;;;14.90;6.23;;;;;;;18.41;64.48;98979.91;125661;1093;103027;-74
2021/08/11 01:56:17;;;;;;;13.97;6.47;;;;;;;18.37;64.93;98973.17;125632;1092;102911;-74
2021/08/11 01:58:50;;;;;;;12.57;6.00;;;;;;;18.35;64.38;98981.42;125640;1093;102980;-73
2021/08/11 02:01:19;;;;;;;15.40;6.50;;;;;;;18.32;64.80;98983.61;125656;1093;102951;-74
2021/08/11 02:03:53;;;;;;;14.17;5.53;;;;;;;18.27;64.53;98971.48;125636;1093;102938;-74
2021/08/11 02:06:23;;;;;;;14.73;5.93;;;;;;;18.27;64.93;98970.63;125665;1093;103010;-73
2021/08/11 02:08:56;;;;;;;11.07;5.13;;;;;;;18.25;64.49;98970.80;125677;1093;103010;-74
2021/08/11 02:11:28;;;;;;;12.17;5.27;;;;;;;18.24;65.00;98971.81;125684;1093;103023;-73
2021/08/11 02:14:00;;;;;;;12.23;5.73;;;;;;;18.24;64.98;98968.26;125659;1093;103028;-74
2021/08/11 02:16:29;;;;;;;12.67;5.17;;;;;;;18.25;64.71;98967.25;125645;1093;102948;-73
2021/08/11 02:18:58;;;;;;;11.43;5.20;;;;;;;18.28;65.18;98975.00;125664;1093;102936;-73
2021/08/11 02:21:27;;;;;;;9.13;4.93;;;;;;;18.29;65.14;98964.09;125691;1093;102955;-74
2021/08/11 02:23:56;;;;;;;13.67;5.63;;;;;;;18.29;65.18;98961.39;125636;1091;102997;-73
2021/08/11 02:26:41;;;;;;;14.33;6.40;;;;;;;18.28;65.27;98964.23;125633;1093;102932;-74
2021/08/11 02:29:42;;;;;;;13.97;5.80;;;;;;;18.23;65.01;98966.57;125662;1093;103038;-73
2021/08/11 02:32:38;;;;;;;12.53;6.17;;;;;;;18.22;65.01;98967.58;125633;1093;103101;-72
2021/08/11 02:35:33;;;;;;;14.20;6.10;;;;;;;18.25;65.41;98968.11;125596;1093;102998;-73
2021/08/11 02:38:23;;;;;;;14.33;5.37;;;;;;;18.25;65.50;98970.80;125675;1093;102948;-73
2021/08/11 02:41:13;;;;;;;9.90;5.00;;;;;;;18.28;65.25;98972.31;125655;1093;103041;-73
2021/08/11 02:43:44;;;;;;;14.23;5.83;;;;;;;18.30;65.36;98962.22;125644;1092;102923;-73
2021/08/11 02:46:23;;;;;;;11.23;5.17;;;;;;;18.31;65.32;98971.98;125666;1093;102911;-72
2021/08/11 02:49:05;;;;;;;10.57;5.27;;;;;;;18.32;65.17;98970.98;125579;1093;103072;-74
2021/08/11 02:51:37;;;;;;;11.37;5.33;;;;;;;18.31;65.26;98969.30;125662;1093;102937;-73
2021/08/11 02:54:13;;;;;;;10.63;4.93;;;;;;;18.31;65.22;98963.91;125605;1093;103532;-74
2021/08/11 02:56:47;;;;;;;10.70;5.07;;;;;;;18.27;65.24;98967.93;125566;1093;103032;-71
2021/08/11 02:59:17;;;;;;;12.20;5.00;;;;;;;18.25;65.38;98967.25;125564;1093;103110;-72
2021/08/11 03:01:49;;;;;;;13.87;6.10;;;;;;;18.25;65.76;98960.03;125605;1093;102927;-72
2021/08/11 03:04:19;;;;;;;12.63;5.40;;;;;;;18.25;65.56;98956.48;125641;1092;102984;-72
2021/08/11 03:06:52;;;;;;;8.47;4.67;;;;;;;18.26;65.56;98956.34;126133;1093;102913;-72
2021/08/11 03:09:23;;;;;;;9.93;5.05;;;;;;;18.30;65.82;98970.30;125640;1092;102935;-72
2021/08/11 03:11:52;;;;;;;12.50;5.13;;;;;;;18.26;65.66;98985.09;125717;1093;104500;-71
2021/08/11 03:14:23;;;;;;;12.20;5.40;;;;;;;18.09;65.63;98993.13;125586;1093;103041;-72
2021/08/11 03:16:52;;;;;;;12.93;5.10;;;;;;;18.04;65.63;98997.29;125651;1093;102948;-72
2021/08/11 03:19:21;;;;;;;11.40;5.07;;;;;;;18.06;65.90;98989.90;125638;1094;102999;-73
2021/08/11 03:21:49;;;;;;;10.27;5.37;;;;;;;18.10;65.79;99000.20;125707;1092;103033;-73
2021/08/11 03:24:18;;;;;;;13.90;5.30;;;;;;;18.13;66.06;98999.88;125662;1093;104642;-73
2021/08/11 03:26:50;;;;;;;12.50;5.30;;;;;;;18.17;66.09;99000.38;125581;1093;103023;-73
2021/08/11 03:29:18;;;;;;;11.93;5.10;;;;;;;18.18;66.02;98998.52;125618;1093;103094;-73
2021/08/11 03:31:46;;;;;;;11.43;5.13;;;;;;;18.19;66.14;99010.97;125611;1093;103157;-71
2021/08/11 03:34:15;;;;;;;11.37;5.37;;;;;;;18.18;66.21;99010.14;125671;1092;103419;-73
2021/08/11 03:36:43;;;;;;;12.30;5.13;;;;;;;18.15;65.89;99013.16;125657;1093;102908;-72
2021/08/11 03:39:12;;;;;;;11.03;4.80;;;;;;;18.13;66.20;99018.72;125593;1093;103047;-73
2021/08/11 03:41:42;;;;;;;14.83;5.07;;;;;;;18.09;66.11;99019.18;126084;1093;102935;-73
2021/08/11 03:44:11;;;;;;;10.30;5.07;;;;;;;18.06;66.04;99014.98;125705;1093;103010;-73
2021/08/11 03:46:41;;;;;;;10.75;4.90;;;;;;;18.08;65.98;99010.28;125676;1093;102913;-72
2021/08/11 03:49:09;;;;;;;11.87;5.37;;;;;;;18.09;65.93;99001.20;125673;1093;102957;-74
2021/08/11 03:51:38;;;;;;;11.77;4.60;;;;;;;18.10;65.94;98999.34;125623;1093;103178;-74
2021/08/11 03:54:06;;;;;;;9.53;5.00;;;;;;;18.13;66.43;99015.16;125630;1092;102885;-73
2021/08/11 03:56:34;;;;;;;11.70;5.43;;;;;;;18.14;66.28;98998.84;125632;1092;103157;-73
2021/08/11 03:59:05;;;;;;;14.23;6.30;;;;;;;18.18;66.08;98993.13;125701;1092;102942;-74
2021/08/11 04:01:36;;;;;;;;;;;;;;;18.19;66.57;98981.36;125698;1093;102910;-73
2021/08/11 04:04:08;;;;;;;10.27;5.57;;;;;;;18.22;66.26;98979.20;125612;1095;103087;-73
2021/08/11 04:06:36;;;;;;;13.27;5.70;;;;;;;18.24;66.71;98969.11;125664;1093;103025;-72
2021/08/11 04:09:06;;;;;;;13.83;5.70;;;;;;;18.26;66.21;98975.18;125599;1093;103010;-73
2021/08/11 04:11:34;;;;;;;14.60;6.23;;;;;;;18.28;66.64;98977.70;125642;1093;103091;-72
2021/08/11 04:14:03;;;;;;;15.73;5.87;;;;;;;18.29;66.83;98990.15;125656;1093;103030;-73
2021/08/11 04:16:32;;;;;;;13.50;5.83;;;;;;;18.30;66.65;98994.53;125619;1093;103176;-73
2021/08/11 04:19:04;;;;;;;13.40;6.40;;;;;;;18.31;66.29;98998.91;125648;1093;103007;-76
2021/08/11 04:21:32;;;;;;;14.10;5.33;;;;;;;18.32;66.90;98995.21;125670;1093;103004;-74
2021/08/11 04:24:00;;;;;;;12.45;5.55;;;;;;;18.36;66.75;98993.88;125681;1093;103031;-75
2021/08/11 04:26:29;;;;;;;12.90;5.70;;;;;;;18.39;66.76;98985.48;125658;1093;103071;-77
2021/08/11 04:28:59;;;;;;;12.67;5.83;;;;;;;18.43;66.97;98988.67;125634;1093;103093;-77
2021/08/11 04:31:28;;;;;;;11.73;4.93;;;;;;;18.47;66.77;98994.59;125648;1093;102912;-72
2021/08/11 04:33:56;;;;;;;11.93;5.17;;;;;;;18.49;66.54;98992.58;125637;1093;102948;-81
2021/08/11 04:36:25;;;;;;;12.77;5.43;;;;;;;18.51;66.89;98998.64;125690;1095;102916;-81
2021/08/11 04:38:54;;;;;;;11.87;5.23;;;;;;;18.55;66.63;99005.36;125784;1093;103102;-81
2021/08/11 04:41:22;;;;;;;12.07;5.30;;;;;;;18.58;66.86;98999.64;125665;1094;103073;-80
2021/08/11 04:43:54;;;;;;;12.93;5.37;;;;;;;18.60;67.07;98989.55;125710;1093;103024;-81
2021/08/11 04:46:23;;;;;;;12.90;5.30;;;;;;;18.63;66.75;98999.16;125686;1093;102916;-84
2021/08/11 04:48:51;;;;;;;12.90;5.25;;;;;;;18.66;66.73;98991.58;125737;1093;103032;-84
2021/08/11 04:51:21;;;;;;;14.17;5.03;;;;;;;18.71;67.20;99004.58;125690;1092;103015;-81
2021/08/11 04:53:50;;;;;;;11.43;4.90;;;;;;;18.74;67.17;99007.77;125695;1093;102937;-83
2021/08/11 04:56:19;;;;;;;13.20;4.90;;;;;;;18.77;67.30;99003.88;125777;1093;103071;-81
2021/08/11 04:58:47;;;;;;;11.53;4.97;;;;;;;18.78;66.71;98997.48;125689;1093;102913;-81
2021/08/11 05:01:16;;;;;;;14.07;5.17;;;;;;;18.80;66.96;99003.55;125676;1093;102956;-80
2021/08/11 05:03:46;;;;;;;13.80;5.10;;;;;;;18.85;66.96;99005.77;125656;1096;103005;-78
2021/08/11 05:06:15;;;;;;;14.17;5.07;;;;;;;18.86;67.12;99000.20;125646;1096;103036;-81
2021/08/11 05:08:43;;;;;;;13.53;4.83;;;;;;;18.93;66.93;99007.62;125719;1096;103097;-83
2021/08/11 05:11:11;;;;;;;11.67;5.30;;;;;;;18.96;66.97;99016.23;125720;1093;103004;-80
2021/08/11 05:13:40;;;;;;;11.87;5.17;;;;;;;18.98;66.94;99018.77;125677;1093;102941;-79
2021/08/11 05:16:08;;;;;;;11.60;4.87;;;;;;;18.99;66.88;99015.89;125713;1093;103532;-80
2021/08/11 05:18:36;;;;;;;11.33;5.33;;;;;;;19.02;67.03;99003.95;125621;1093;103039;-79
2021/08/11 05:21:05;;;;;;;10.73;5.07;;;;;;;19.07;67.33;99001.60;125664;1096;102971;-79
2021/08/11 05:23:33;;;;;;;10.97;4.83;;;;;;;19.16;67.40;99008.66;125625;1096;103020;-82
2021/08/11 05:26:02;;;;;;;12.60;4.90;;;;;;;19.21;67.26;99004.61;125709;1096;102936;-81
2021/08/11 05:28:30;;;;;;;12.63;5.30;;;;;;;19.26;66.91;99010.34;125676;1094;103115;-78
2021/08/11 05:30:58;;;;;;;13.10;5.15;;;;;;;19.32;67.38;99010.53;125712;1091;103030;-81
2021/08/11 05:33:27;;;;;;;13.63;5.27;;;;;;;19.40;67.27;99015.06;125695;1095;103028;-80
2021/08/11 05:35:55;;;;;;;10.43;4.73;;;;;;;19.48;66.93;99020.45;125727;1093;102926;-80
2021/08/11 05:38:23;;;;;;;15.33;4.83;;;;;;;19.57;67.16;99021.27;125672;1096;102948;-82
2021/08/11 05:40:52;;;;;;;10.10;4.70;;;;;;;19.69;67.20;99010.95;125679;1095;102920;-80
2021/08/11 05:43:20;;;;;;;10.47;4.93;;;;;;;19.83;67.54;99014.80;125712;1095;102911;-82
2021/08/11 05:45:53;;;;;;;9.40;4.70;;;;;;;19.97;67.21;99026.76;125688;1093;102913;-80
2021/08/11 05:48:26;;;;;;;10.00;5.20;;;;;;;20.07;67.42;99029.28;125678;1093;103124;-82
2021/08/11 05:50:54;;;;;;;12.85;4.80;;;;;;;20.18;67.28;99017.25;125724;1092;103019;-80
2021/08/11 05:53:23;;;;;;;8.35;4.40;;;;;;;20.26;67.35;99019.92;125709;1093;103019;-76
2021/08/11 05:55:55;;;;;;;9.63;4.50;;;;;;;20.32;67.24;99024.63;125610;1096;103077;-78
2021/08/11 05:58:24;;;;;;;11.73;4.78;;;;;;;20.42;67.41;99026.24;125731;1096;102974;-82
2021/08/11 06:00:52;;;;;;;11.90;4.50;;;;;;;20.55;67.43;99025.70;125666;1094;103036;-81
2021/08/11 06:03:24;;;;;;;10.43;4.90;;;;;;;20.64;67.85;99021.90;125883;1096;102940;-82
2021/08/11 06:05:54;;;;;;;13.97;5.20;;;;;;;20.74;67.21;99014.41;125857;1096;103000;-80
2021/08/11 06:08:23;;;;;;;11.27;4.90;;;;;;;20.81;67.50;99007.30;125630;1095;103148;-76
2021/08/11 06:10:51;;;;;;;14.10;5.60;;;;;;;20.89;67.18;99009.10;125631;1095;103060;-74
2021/08/11 06:13:20;;;;;;;11.77;4.90;;;;;;;20.97;67.50;99010.92;125636;1095;102951;-77
2021/08/11 06:15:49;;;;;;;10.67;4.83;;;;;;;21.06;67.56;99015.22;125664;1093;103090;-76
2021/08/11 06:18:19;;;;;;;10.33;4.50;;;;;;;21.19;67.23;99019.19;125714;1093;103144;-75
2021/08/11 06:20:52;;;;;;;10.50;4.73;;;;;;;21.28;67.12;99015.40;125592;1096;103081;-75
2021/08/11 06:23:20;;;;;;;10.50;4.60;;;;;;;21.31;66.94;99031.27;125564;1092;103068;-78
2021/08/11 06:25:48;;;;;;;13.17;4.50;;;;;;;21.35;66.77;99023.61;125559;1093;103144;-77
2021/08/11 06:28:18;;;;;;;11.70;4.80;;;;;;;21.40;67.16;99030.14;125557;1093;103012;-72
2021/08/11 06:30:46;;;;;;;12.15;4.95;;;;;;;21.41;67.04;99031.00;125619;1093;103009;-77
2021/08/11 06:33:15;;;;;;;9.50;4.00;;;;;;;21.39;66.71;99027.64;125607;1093;103020;-77
2021/08/11 06:35:43;;;;;;;13.20;4.77;;;;;;;21.35;66.81;99039.84;125551;1094;103007;-77
2021/08/11 06:38:11;;;;;;;10.70;5.07;;;;;;;21.32;66.84;99035.66;125575;1093;103080;-76
2021/08/11 06:40:43;;;;;;;14.03;5.50;;;;;;;21.28;66.74;99031.63;125615;1093;103010;-79
2021/08/11 06:43:11;;;;;;;13.10;5.43;;;;;;;21.26;66.92;99030.97;125604;1093;103167;-78
2021/08/11 06:45:40;;;;;;;10.87;5.70;;;;;;;21.26;66.69;99025.56;125620;1093;103175;-80
2021/08/11 06:48:08;;;;;;;15.17;6.50;;;;;;;21.22;66.90;99030.47;125599;1093;103361;-79
2021/08/11 06:50:37;;;;;;;15.03;5.67;;;;;;;21.19;66.96;99027.30;125733;1093;102938;-75
2021/08/11 06:53:05;;;;;;;14.10;5.33;;;;;;;21.15;66.33;99036.80;125678;1096;103065;-74
2021/08/11 06:55:33;;;;;;;13.57;6.40;;;;;;;21.10;66.64;99032.77;125633;1093;103065;-80
2021/08/11 06:58:02;;;;;;;16.60;7.40;;;;;;;21.08;67.06;99023.17;125597;1093;103146;-85
2021/08/11 07:00:30;;;;;;;18.67;7.87;;;;;;;21.07;66.61;99027.72;125612;1093;103324;-78
2021/08/11 07:02:59;;;;;;;20.60;8.20;;;;;;;21.06;66.69;99028.74;125690;1093;103012;-76
2021/08/11 07:05:28;;;;;;;22.03;9.97;;;;;;;21.10;66.26;99032.77;125656;1093;103164;-77
2021/08/11 07:07:56;;;;;;;18.67;9.47;;;;;;;21.15;66.29;99037.66;125635;1093;102921;-73
2021/08/11 07:10:25;;;;;;;19.15;9.15;;;;;;;21.31;66.49;99038.52;125604;1093;103028;-73
2021/08/11 07:12:53;;;;;;;20.90;9.50;;;;;;;21.49;66.20;99039.05;125610;1093;103489;-72
2021/08/11 07:15:22;;;;;;;18.77;8.20;;;;;;;22.55;65.21;99039.94;125681;1093;103023;-75
2021/08/11 07:17:53;;;;;;;19.53;8.80;;;;;;;23.92;64.72;99048.94;125621;1093;103018;-73
2021/08/11 07:20:26;;;;;;;16.60;7.77;;;;;;;24.33;64.99;99047.30;125585;1092;103016;-70
2021/08/11 07:22:58;;;;;;;15.43;6.87;;;;;;;23.79;66.61;99048.84;125617;1093;102914;-70
2021/08/11 07:25:27;;;;;;;15.97;6.23;;;;;;;23.58;66.30;99058.73;125651;1093;103009;-70
2021/08/11 07:27:56;;;;;;;18.10;7.30;;;;;;;23.38;66.42;99053.14;125569;1093;103068;-71
2021/08/11 07:30:24;;;;;;;14.37;6.57;;;;;;;23.24;66.54;99056.75;125588;1093;102984;-69
2021/08/11 07:32:53;;;;;;;15.67;6.93;;;;;;;23.16;65.89;99055.81;125552;1093;102981;-71
2021/08/11 07:35:22;;;;;;;12.40;6.23;;;;;;;23.07;65.76;99056.97;125546;1093;102998;-70
2021/08/11 07:37:55;;;;;;;17.67;6.63;;;;;;;23.06;65.67;99063.42;125610;1093;103013;-71
2021/08/11 07:40:26;;;;;;;13.73;6.50;;;;;;;22.89;64.87;99068.26;125570;1093;103012;-71
2021/08/11 07:42:58;;;;;;;13.87;5.80;;;;;;;22.73;65.32;99064.77;125642;1093;102919;-71
2021/08/11 07:45:29;;;;;;;14.57;6.30;;;;;;;22.63;65.25;99064.23;125588;1093;102871;-70
2021/08/11 07:47:59;;;;;;;14.33;6.43;;;;;;;22.52;65.47;99075.55;125602;1093;102908;-70
2021/08/11 07:50:30;;;;;;;14.17;6.77;;;;;;;22.38;64.82;99083.50;125621;1092;102935;-71
2021/08/11 07:52:58;;;;;;;11.43;5.77;;;;;;;22.28;65.39;99081.05;125577;1093;103009;-69
2021/08/11 07:55:27;;;;;;;13.43;5.80;;;;;;;22.22;65.23;99086.39;125561;1093;102978;-71
2021/08/11 07:57:55;;;;;;;12.10;5.87;;;;;;;22.31;65.38;99087.98;125608;1092;103524;-72
2021/08/11 08:00:24;;;;;;;12.93;5.93;;;;;;;22.42;65.24;99092.08;125592;1093;103144;-70
2021/08/11 08:02:53;;;;;;;11.50;5.60;;;;;;;22.60;64.94;99097.98;125719;1092;102913;-69
2021/08/11 08:05:22;;;;;;;12.00;5.05;;;;;;;22.64;64.78;99092.16;125606;1093;103364;-75
2021/08/11 08:07:51;;;;;;;12.80;5.50;;;;;;;22.66;65.19;99090.09;125609;1093;102938;-77
2021/08/11 08:10:20;;;;;;;14.60;5.43;;;;;;;22.79;64.86;99089.45;125616;1093;103492;-75
2021/08/11 08:12:48;;;;;;;10.45;4.90;;;;;;;22.97;64.82;99095.27;125559;1094;103167;-75
2021/08/11 08:15:17;;;;;;;9.77;4.60;;;;;;;23.22;64.99;99097.66;125608;1092;103068;-75
2021/08/11 08:17:46;;;;;;;12.20;4.87;;;;;;;23.49;65.19;99096.02;125598;1096;102919;-73
2021/08/11 08:20:17;;;;;;;9.40;4.75;;;;;;;23.68;64.27;99096.39;125622;1096;103036;-76
2021/08/11 08:22:48;;;;;;;11.00;4.50;;;;;;;23.90;64.30;99091.75;125573;1092;103046;-74
2021/08/11 08:25:21;;;;;;;8.47;4.20;;;;;;;24.02;64.41;99107.55;125565;1093;103007;-74
2021/08/11 08:27:51;;;;;;;9.53;4.23;;;;;;;23.99;63.82;99106.05;125641;1093;103017;-73
2021/08/11 08:30:35;;;;;;;8.83;4.40;;;;;;;23.85;64.04;99098.80;125601;1093;102952;-74
2021/08/11 08:33:03;;;;;;;9.13;3.90;;;;;;;23.56;64.08;99104.23;125564;1093;102980;-72
2021/08/11 08:35:32;;;;;;;10.30;4.20;;;;;;;23.40;64.01;99099.06;125582;1094;103020;-74
2021/08/11 08:38:00;;;;;;;7.83;3.80;;;;;;;23.37;63.70;99100.30;125560;1094;103048;-73
2021/08/11 08:40:33;;;;;;;11.87;4.53;;;;;;;23.35;63.91;99105.09;125621;1093;102914;-73
2021/08/11 08:43:02;;;;;;;13.00;4.78;;;;;;;23.39;63.79;99102.81;125623;1093;103034;-73
2021/08/11 08:45:31;;;;;;;8.80;4.10;;;;;;;23.47;63.81;99108.94;125616;1092;102911;-74
2021/08/11 08:48:04;;;;;;;8.07;4.10;;;;;;;23.50;63.65;99110.44;125632;1093;103036;-73
2021/08/11 08:50:33;;;;;;;9.15;4.10;;;;;;;23.49;63.60;99111.47;125571;1096;102919;-72
2021/08/11 08:53:05;;;;;;;7.47;3.63;;;;;;;23.55;63.71;99105.27;125631;1096;103001;-72
2021/08/11 08:55:35;;;;;;;10.63;4.43;;;;;;;23.57;63.46;99110.48;125587;1093;103906;-73
2021/08/11 08:58:04;;;;;;;9.00;3.77;;;;;;;23.58;62.79;99106.74;125694;1093;103041;-73
2021/08/11 09:00:35;;;;;;;11.77;4.13;;;;;;;23.61;62.70;99100.92;125648;1093;103056;-74
2021/08/11 09:03:05;;;;;;;9.50;4.23;;;;;;;23.63;63.18;99096.99;125581;1093;102997;-72
2021/08/11 09:05:34;;;;;;;9.67;4.23;;;;;;;23.67;62.74;99088.42;125669;1093;103011;-73
2021/08/11 09:08:03;;;;;;;9.17;4.00;;;;;;;23.90;62.71;99099.05;125628;1093;103010;-70
2021/08/11 09:10:32;;;;;;;7.00;3.70;;;;;;;24.19;62.44;99092.59;125652;1093;103065;-72
2021/08/11 09:13:07;;;;;;;10.20;4.00;;;;;;;24.81;62.06;99092.71;125667;1093;102961;-75
2021/08/11 09:15:42;;;;;;;11.07;4.37;;;;;;;25.70;62.08;99091.81;125605;1093;103088;-73
2021/08/11 09:18:18;;;;;;;8.63;4.23;;;;;;;26.48;61.84;99101.15;125630;1094;102913;-73
2021/08/11 09:21:12;;;;;;;11.20;4.57;;;;;;;27.05;61.68;99103.21;125621;1093;102994;-73
2021/08/11 09:23:46;;;;;;;8.75;4.20;;;;;;;27.30;61.61;99100.53;125645;1093;103003;-74
2021/08/11 09:26:17;;;;;;;8.07;3.77;;;;;;;27.18;61.72;99094.09;125692;1093;103094;-74
2021/08/11 09:28:48;;;;;;;7.37;3.77;;;;;;;27.53;61.33;99101.04;125651;1096;103010;-74
2021/08/11 09:31:31;;;;;;;7.20;3.63;;;;;;;27.48;61.64;99107.18;125681;1093;103033;-73
2021/08/11 09:34:03;;;;;;;8.07;4.00;;;;;;;27.57;61.19;99099.54;125654;1093;103100;-73
2021/08/11 09:36:48;;;;;;;6.77;3.73;;;;;;;27.72;61.01;99096.47;125614;1092;102955;-74
2021/08/11 09:39:18;;;;;;;9.17;4.20;;;;;;;27.62;60.65;99105.17;125686;1096;102946;-74
2021/08/11 09:42:04;;;;;;;8.00;3.93;;;;;;;27.86;60.27;99089.83;125610;1094;102956;-74
2021/08/11 09:44:33;;;;;;;8.60;3.77;;;;;;;28.19;60.07;99087.84;125648;1096;103007;-73
2021/08/11 09:47:20;;;;;;;7.37;3.80;;;;;;;28.58;59.92;99096.64;125563;1093;102919;-76
2021/08/11 09:50:00;;;;;;;5.73;3.50;;;;;;;29.14;59.44;99096.58;125551;1093;102988;-73
2021/08/11 09:52:50;;;;;;;9.43;3.57;;;;;;;29.47;58.99;99084.30;125590;1096;102997;-72
2021/08/11 09:55:19;;;;;;;8.00;3.70;;;;;;;29.57;58.68;99089.19;125503;1096;102975;-73
2021/08/11 09:57:48;;;;;;;9.33;4.03;;;;;;;29.85;58.49;99098.65;125570;1096;102907;-73
2021/08/11 10:00:17;;;;;;;8.73;3.43;;;;;;;29.97;58.30;99096.75;125562;1096;103387;-74
2021/08/11 10:02:46;;;;;;;7.00;3.70;;;;;;;29.78;57.68;99090.52;125580;1096;103111;-73
2021/08/11 10:05:36;;;;;;;7.17;3.40;;;;;;;29.66;58.36;99090.52;125575;1093;102939;-75
2021/08/11 10:08:05;;;;;;;6.73;3.57;;;;;;;29.48;57.78;99090.63;125605;1093;103135;-81
2021/08/11 10:10:46;;;;;;;9.07;3.80;;;;;;;29.28;57.79;99096.39;125583;1093;103424;-78
2021/08/11 10:13:21;;;;;;;7.53;3.90;;;;;;;29.10;57.25;99106.32;125508;1093;102953;-78
2021/08/11 10:15:51;;;;;;;8.70;4.00;;;;;;;28.90;56.92;99096.50;125708;1094;103071;-80
2021/08/11 10:18:26;;;;;;;7.87;3.80;;;;;;;28.59;56.63;99092.84;125814;1095;103024;-78
2021/08/11 10:20:59;;;;;;;8.53;4.00;;;;;;;28.27;56.66;99098.48;125636;1096;103045;-76
2021/08/11 10:23:28;;;;;;;12.00;3.97;;;;;;;27.90;56.47;99093.80;125611;1093;102938;-76
2021/08/11 10:25:57;;;;;;;15.90;4.47;;;;;;;27.77;56.39;99091.17;125700;1093;103026;-83
2021/08/11 10:28:26;;;;;;;14.53;4.67;;;;;;;27.73;55.27;99098.97;126026;1093;102913;-81
2021/08/11 10:30:58;;;;;;;12.43;4.00;;;;;;;27.49;55.39;99097.93;125756;1093;103092;-82
2021/08/11 10:33:28;;;;;;;10.97;4.27;;;;;;;27.30;55.10;99092.34;125914;1092;102970;-82
2021/08/11 10:35:58;;;;;;;12.57;3.83;;;;;;;27.11;54.89;99096.88;125589;1093;102998;-81
2021/08/11 10:38:28;;;;;;;6.37;3.03;;;;;;;26.90;54.72;99092.59;125577;1093;103062;-80
2021/08/11 10:40:58;;;;;;;7.97;3.80;;;;;;;26.71;54.53;99081.52;125757;1093;102942;-80
2021/08/11 10:43:33;;;;;;;12.93;4.17;;;;;;;26.60;54.57;99084.95;125644;1093;102982;-75
2021/08/11 10:46:09;;;;;;;9.03;3.87;;;;;;;26.48;54.10;99084.79;125587;1093;103068;-80
2021/08/11 10:48:38;;;;;;;7.47;3.53;;;;;;;26.34;54.05;99080.42;125619;1092;103001;-76
2021/08/11 10:51:07;;;;;;;6.90;3.70;;;;;;;26.25;54.25;99082.55;125625;1095;103032;-81
2021/08/11 10:53:37;;;;;;;6.30;3.57;;;;;;;26.19;53.90;99086.13;125561;1096;102938;-79
2021/08/11 10:56:05;;;;;;;9.63;3.70;;;;;;;26.10;53.70;99086.32;125725;1093;102071;-78
2021/08/11 10:58:37;;;;;;;11.77;4.13;;;;;;;26.11;53.94;99078.97;125738;1093;102912;-77
2021/08/11 11:01:30;;;;;;;11.63;3.87;;;;;;;26.10;53.76;99078.14;125739;1093;102943;-79
2021/08/11 11:04:04;;;;;;;8.33;4.00;;;;;;;26.06;53.56;99076.07;125641;1093;103006;-78
2021/08/11 11:07:07;;;;;;;7.10;3.70;;;;;;;26.08;53.62;99082.97;125675;1093;102908;-79
2021/08/11 11:09:45;;;;;;;10.57;4.07;;;;;;;26.05;53.15;99072.48;125642;1093;102922;-79
2021/08/11 11:12:17;;;;;;;11.57;4.00;;;;;;;25.90;53.05;99077.33;125695;1095;102920;-77
2021/08/11 11:14:53;;;;;;;11.20;4.10;;;;;;;25.79;53.12;99071.49;125711;1095;102912;-80
2021/08/11 11:17:26;;;;;;;8.40;4.07;;;;;;;25.80;53.13;99070.45;125674;1096;103007;-77
2021/08/11 11:20:20;;;;;;;8.47;4.07;;;;;;;25.86;52.94;99064.16;125661;1096;102916;-79
2021/08/11 11:22:54;;;;;;;11.43;4.53;;;;;;;25.85;52.93;99072.52;125499;1095;103013;-80
2021/08/11 11:25:59;;;;;;;9.50;4.00;;;;;;;25.85;52.83;99061.63;125602;1093;103029;-74
2021/08/11 11:28:53;;;;;;;9.83;4.65;;;;;;;25.73;52.38;99068.75;125654;1092;102913;-75
2021/08/11 11:31:42;;;;;;;7.57;4.10;;;;;;;25.71;52.40;99074.43;125600;1093;102843;-75
2021/08/11 11:34:23;;;;;;;11.57;4.13;;;;;;;25.71;52.34;99067.08;125655;1093;100489;-74